SWQ3653 KELP-MGGT
Flight info
| Callsign | SWQ3653 |
|---|---|
| Flight time | N/A |
| Altitude | 35000 |
| Route | NEVUE3 FST DCT KOBLE DCT DLF DCT LRD/N0454F370 DCT MABUS DCT MAM UT151 VER UA552 GABEN GABEN2C |
| Aircraft | B738/M-SDE2E3FGHIRWXY/LB1 |
Departure
| Time | 2026-05-03 21:46 |
|---|---|
| Airport | El Paso International Airport (KELP) |
Arrival
| Time | N/A |
|---|---|
| Airport | La Aurora International Airport (MGGT) |
| Time | Latitude | Longitude | Altitude | Speed | Heading |
|---|---|---|---|---|---|
| 2026-05-03 21:16 | 31.81951 | -106.36748 | 3955 ft | 0 kts | 321° |
| 2026-05-03 21:39 | 31.81936 | -106.36736 | 3956 ft | 4 kts | 348° |
| 2026-05-03 21:39 | 31.81915 | -106.36743 | 3955 ft | 4 kts | 44° |
| 2026-05-03 21:40 | 31.81903 | -106.36756 | 3955 ft | 1 kts | 48° |
| 2026-05-03 21:40 | 31.81902 | -106.36758 | 3955 ft | 1 kts | 48° |
| 2026-05-03 21:42 | 31.81919 | -106.36735 | 3955 ft | 9 kts | 48° |
| 2026-05-03 21:42 | 31.81978 | -106.36721 | 3956 ft | 9 kts | 336° |
| 2026-05-03 21:43 | 31.82029 | -106.36765 | 3955 ft | 9 kts | 321° |
| 2026-05-03 21:43 | 31.82078 | -106.36811 | 3955 ft | 9 kts | 321° |
| 2026-05-03 21:43 | 31.82125 | -106.36855 | 3956 ft | 9 kts | 321° |
| 2026-05-03 21:43 | 31.82165 | -106.36892 | 3957 ft | 0 kts | 322° |
| 2026-05-03 21:44 | 31.82222 | -106.36942 | 3958 ft | 12 kts | 320° |
| 2026-05-03 21:44 | 31.82261 | -106.36990 | 3957 ft | 12 kts | 310° |
| 2026-05-03 21:45 | 31.82247 | -106.37077 | 3957 ft | 12 kts | 232° |
| 2026-05-03 21:45 | 31.81945 | -106.37496 | 3954 ft | 99 kts | 230° |
| 2026-05-03 21:45 | 31.81576 | -106.38009 | 3948 ft | 144 kts | 230° |
| 2026-05-03 21:45 | 31.80819 | -106.39099 | 3998 ft | 196 kts | 230° |
| 2026-05-03 21:46 | 31.79870 | -106.40398 | 4511 ft | 215 kts | 230° |
| 2026-05-03 21:46 | 31.78756 | -106.41524 | 5203 ft | 212 kts | 204° |
| 2026-05-03 21:46 | 31.77343 | -106.41549 | 5659 ft | 202 kts | 154° |
| 2026-05-03 21:46 | 31.76318 | -106.40383 | 6006 ft | 218 kts | 115° |
| 2026-05-03 21:47 | 31.75731 | -106.38693 | 6184 ft | 233 kts | 116° |
| 2026-05-03 21:47 | 31.74974 | -106.36941 | 6325 ft | 248 kts | 121° |
| 2026-05-03 21:47 | 31.74055 | -106.35144 | 6442 ft | 263 kts | 124° |
| 2026-05-03 21:47 | 31.73396 | -106.33940 | 6598 ft | 269 kts | 125° |
| 2026-05-03 21:48 | 31.70994 | -106.29110 | 7244 ft | 298 kts | 116° |
| 2026-05-03 21:48 | 31.70118 | -106.26923 | 7870 ft | 300 kts | 116° |
| 2026-05-03 21:48 | 31.69110 | -106.24454 | 8516 ft | 303 kts | 117° |
| 2026-05-03 21:49 | 31.68169 | -106.22195 | 9084 ft | 306 kts | 117° |
| 2026-05-03 21:49 | 31.67226 | -106.19972 | 9676 ft | 309 kts | 119° |
| 2026-05-03 21:49 | 31.65198 | -106.15680 | 10406 ft | 331 kts | 121° |
| 2026-05-03 21:50 | 31.64031 | -106.13266 | 10635 ft | 347 kts | 121° |
| 2026-05-03 21:50 | 31.62837 | -106.10779 | 11094 ft | 354 kts | 121° |
| 2026-05-03 21:50 | 31.61634 | -106.08252 | 11716 ft | 357 kts | 121° |
| 2026-05-03 21:50 | 31.60428 | -106.05714 | 12397 ft | 358 kts | 121° |
| 2026-05-03 21:51 | 31.59202 | -106.03131 | 13017 ft | 362 kts | 122° |
| 2026-05-03 21:51 | 31.58095 | -106.00816 | 13533 ft | 366 kts | 123° |
| 2026-05-03 21:51 | 31.56688 | -105.98217 | 14166 ft | 368 kts | 128° |
| 2026-05-03 21:51 | 31.55219 | -105.95723 | 14660 ft | 374 kts | 129° |
| 2026-05-03 21:52 | 31.53713 | -105.93201 | 15238 ft | 379 kts | 129° |
| 2026-05-03 21:52 | 31.52216 | -105.90674 | 15859 ft | 382 kts | 129° |
| 2026-05-03 21:52 | 31.50697 | -105.88082 | 16465 ft | 386 kts | 129° |
| 2026-05-03 21:52 | 31.49175 | -105.85465 | 17007 ft | 391 kts | 130° |
| 2026-05-03 21:53 | 31.47693 | -105.82777 | 17555 ft | 399 kts | 122° |
| 2026-05-03 21:53 | 31.46812 | -105.79624 | 18033 ft | 413 kts | 106° |
| 2026-05-03 21:53 | 31.46235 | -105.76282 | 18564 ft | 419 kts | 105° |
| 2026-05-03 21:53 | 31.45691 | -105.72933 | 19114 ft | 423 kts | 104° |
| 2026-05-03 21:54 | 31.45137 | -105.69504 | 19632 ft | 427 kts | 104° |
| 2026-05-03 21:54 | 31.44576 | -105.66093 | 20091 ft | 432 kts | 105° |
| 2026-05-03 21:54 | 31.43994 | -105.62620 | 20558 ft | 436 kts | 105° |
| 2026-05-03 21:54 | 31.43401 | -105.59118 | 21029 ft | 439 kts | 105° |
| 2026-05-03 21:55 | 31.42801 | -105.55593 | 21405 ft | 445 kts | 105° |
| 2026-05-03 21:55 | 31.42192 | -105.52033 | 21819 ft | 448 kts | 105° |
| 2026-05-03 21:55 | 31.41579 | -105.48500 | 22286 ft | 451 kts | 106° |
| 2026-05-03 21:55 | 31.40917 | -105.44905 | 22763 ft | 453 kts | 106° |
| 2026-05-03 21:56 | 31.40277 | -105.41280 | 23118 ft | 457 kts | 106° |
| 2026-05-03 21:56 | 31.39636 | -105.37597 | 23466 ft | 462 kts | 105° |
| 2026-05-03 21:56 | 31.39002 | -105.33891 | 23848 ft | 465 kts | 105° |
| 2026-05-03 21:56 | 31.38354 | -105.30165 | 24284 ft | 468 kts | 106° |
| 2026-05-03 21:57 | 31.37697 | -105.26426 | 24659 ft | 469 kts | 106° |
| 2026-05-03 21:57 | 31.37048 | -105.22708 | 24899 ft | 474 kts | 106° |
| 2026-05-03 21:57 | 31.36378 | -105.18896 | 25208 ft | 478 kts | 106° |
| 2026-05-03 21:57 | 31.35702 | -105.15077 | 25585 ft | 481 kts | 106° |
| 2026-05-03 21:58 | 31.35016 | -105.11219 | 25928 ft | 484 kts | 106° |
| 2026-05-03 21:58 | 31.34328 | -105.07353 | 26262 ft | 486 kts | 106° |
| 2026-05-03 21:58 | 31.33634 | -105.03460 | 26578 ft | 489 kts | 106° |
| 2026-05-03 21:58 | 31.32941 | -104.99578 | 26875 ft | 493 kts | 106° |
| 2026-05-03 21:59 | 31.32235 | -104.95632 | 27154 ft | 497 kts | 106° |
| 2026-05-03 21:59 | 31.31527 | -104.91670 | 27475 ft | 499 kts | 106° |
| 2026-05-03 21:59 | 31.30817 | -104.87701 | 27871 ft | 500 kts | 107° |
| 2026-05-03 21:59 | 31.30099 | -104.83703 | 28129 ft | 504 kts | 106° |
| 2026-05-03 22:00 | 31.29372 | -104.79669 | 28343 ft | 508 kts | 106° |
| 2026-05-03 22:00 | 31.28642 | -104.75617 | 28591 ft | 511 kts | 106° |
| 2026-05-03 22:00 | 31.27906 | -104.71536 | 28871 ft | 513 kts | 106° |
| 2026-05-03 22:00 | 31.27166 | -104.67442 | 29127 ft | 516 kts | 106° |
| 2026-05-03 22:01 | 31.26421 | -104.63329 | 29385 ft | 518 kts | 106° |
| 2026-05-03 22:01 | 31.25671 | -104.59198 | 29656 ft | 520 kts | 106° |
| 2026-05-03 22:01 | 31.24917 | -104.55050 | 29991 ft | 521 kts | 107° |
| 2026-05-03 22:01 | 31.24164 | -104.50908 | 30323 ft | 521 kts | 106° |
| 2026-05-03 22:02 | 31.23408 | -104.46767 | 30687 ft | 520 kts | 107° |
| 2026-05-03 22:02 | 31.22654 | -104.42644 | 31060 ft | 518 kts | 107° |
| 2026-05-03 22:02 | 31.21900 | -104.38533 | 31377 ft | 518 kts | 107° |
| 2026-05-03 22:02 | 31.21143 | -104.34409 | 31625 ft | 519 kts | 107° |
| 2026-05-03 22:03 | 31.20391 | -104.30329 | 31920 ft | 519 kts | 107° |
| 2026-05-03 22:03 | 31.19634 | -104.26220 | 32252 ft | 518 kts | 106° |
| 2026-05-03 22:03 | 31.18873 | -104.22097 | 32530 ft | 518 kts | 106° |
| 2026-05-03 22:03 | 31.18113 | -104.17991 | 32843 ft | 517 kts | 107° |
| 2026-05-03 22:04 | 31.17352 | -104.13881 | 33178 ft | 516 kts | 107° |
| 2026-05-03 22:04 | 31.16593 | -104.09788 | 33451 ft | 516 kts | 106° |
| 2026-05-03 22:04 | 31.15829 | -104.05690 | 33687 ft | 516 kts | 106° |
| 2026-05-03 22:04 | 31.15065 | -104.01595 | 33944 ft | 516 kts | 107° |
| 2026-05-03 22:05 | 31.14300 | -103.97505 | 34242 ft | 514 kts | 106° |
| 2026-05-03 22:05 | 31.13541 | -103.93440 | 34681 ft | 508 kts | 106° |
| 2026-05-03 22:05 | 31.12788 | -103.89425 | 35053 ft | 505 kts | 106° |
| 2026-05-03 22:05 | 31.12040 | -103.85456 | 35031 ft | 509 kts | 106° |
| 2026-05-03 22:06 | 31.10522 | -103.77399 | 35041 ft | 507 kts | 106° |
| 2026-05-03 22:06 | 31.09020 | -103.69433 | 35028 ft | 501 kts | 106° |
| 2026-05-03 22:07 | 31.07512 | -103.61488 | 35036 ft | 500 kts | 106° |
| 2026-05-03 22:07 | 31.06002 | -103.53560 | 35032 ft | 500 kts | 106° |
| 2026-05-03 22:08 | 31.04496 | -103.45680 | 35031 ft | 500 kts | 106° |
| 2026-05-03 22:08 | 31.02978 | -103.37762 | 35023 ft | 500 kts | 106° |
| 2026-05-03 22:09 | 31.01456 | -103.29848 | 35017 ft | 500 kts | 106° |
| 2026-05-03 22:10 | 30.99158 | -103.17961 | 35015 ft | 501 kts | 106° |
| 2026-05-03 22:10 | 30.97624 | -103.10045 | 35011 ft | 501 kts | 106° |